createdAt,value
2022-09-13T00:04:55.480Z,17.40
2022-09-13T00:09:57.119Z,17.40
2022-09-13T00:14:58.788Z,17.40
2022-09-13T00:20:00.493Z,17.40
2022-09-13T00:25:03.803Z,17.30
2022-09-13T00:30:07.076Z,17.20
2022-09-13T00:35:09.087Z,17.20
2022-09-13T00:40:11.221Z,17.10
2022-09-13T00:45:17.213Z,17.00
2022-09-13T00:50:44.640Z,17.00
2022-09-13T00:55:51.467Z,17.00
2022-09-13T01:00:55.102Z,16.90
2022-09-13T01:06:07.604Z,16.90
2022-09-13T01:11:17.709Z,16.90
2022-09-13T01:16:19.486Z,16.90
2022-09-13T01:21:39.645Z,16.80
2022-09-13T01:27:08.520Z,16.70
2022-09-13T01:32:27.009Z,16.80
2022-09-13T01:38:05.641Z,16.80
2022-09-13T01:43:39.221Z,16.80
2022-09-13T01:48:55.466Z,16.70
2022-09-13T01:54:12.475Z,16.80
2022-09-13T01:59:17.031Z,16.70
2022-09-13T02:04:24.410Z,16.70
2022-09-13T02:09:30.383Z,16.70
2022-09-13T02:14:40.091Z,16.70
2022-09-13T02:19:57.065Z,16.70
2022-09-13T02:25:19.405Z,16.60
2022-09-13T02:30:22.233Z,16.60
2022-09-13T02:35:33.391Z,16.60
2022-09-13T02:40:49.435Z,16.60
2022-09-13T02:46:19.245Z,16.60
2022-09-13T02:51:44.426Z,16.50
2022-09-13T02:57:01.491Z,16.50
2022-09-13T03:02:09.641Z,16.50
2022-09-13T03:07:13.315Z,16.50
2022-09-13T03:12:52.595Z,16.50
2022-09-13T03:18:09.256Z,16.60
2022-09-13T03:23:35.541Z,16.60
2022-09-13T03:28:50.909Z,16.50
2022-09-13T03:33:58.959Z,16.60
2022-09-13T03:39:06.585Z,16.60
2022-09-13T03:44:12.171Z,16.60
2022-09-13T03:49:16.637Z,16.70
2022-09-13T03:54:32.249Z,16.60
2022-09-13T03:59:34.179Z,16.60
2022-09-13T04:04:35.928Z,16.60
2022-09-13T04:09:37.628Z,16.70
2022-09-13T04:14:39.384Z,16.70
2022-09-13T04:19:41.152Z,16.60
2022-09-13T04:24:44.023Z,16.60
2022-09-13T04:29:45.697Z,16.60
2022-09-13T04:34:47.699Z,16.60
2022-09-13T04:39:49.430Z,16.60
2022-09-13T04:44:51.092Z,16.60
2022-09-13T04:49:52.769Z,16.70
2022-09-13T04:54:54.659Z,16.80
2022-09-13T04:59:56.398Z,16.70
2022-09-13T05:04:58.044Z,16.70
2022-09-13T05:10:00.797Z,16.60
2022-09-13T05:15:02.857Z,16.60
2022-09-13T05:20:05.901Z,16.60
2022-09-13T05:25:08.237Z,16.50
2022-09-13T05:30:10.397Z,16.50
2022-09-13T05:35:13.654Z,16.50
2022-09-13T05:40:15.490Z,16.60
2022-09-13T05:45:17.211Z,16.50
2022-09-13T05:50:38.481Z,16.50
2022-09-13T05:55:40.692Z,16.60
2022-09-13T06:00:42.372Z,16.50
2022-09-13T06:05:44.161Z,16.60
2022-09-13T06:11:09.901Z,16.60
2022-09-13T06:16:13.804Z,16.60
2022-09-13T06:21:19.246Z,16.70
2022-09-13T06:26:23.837Z,16.80
2022-09-13T06:31:27.609Z,16.70
2022-09-13T06:36:29.743Z,16.80
2022-09-13T06:41:31.806Z,16.70
2022-09-13T06:46:35.245Z,16.80
2022-09-13T06:51:37.121Z,16.70
2022-09-13T06:56:39.266Z,16.80
2022-09-13T07:01:44.687Z,16.90
2022-09-13T07:06:48.731Z,17.00
2022-09-13T07:11:52.872Z,17.00
2022-09-13T07:16:55.123Z,17.20
2022-09-13T07:21:57.544Z,17.30
2022-09-13T07:26:59.326Z,17.30
2022-09-13T07:32:01.171Z,17.30
2022-09-13T07:37:02.887Z,17.40
2022-09-13T07:42:04.705Z,17.50
2022-09-13T07:47:06.390Z,17.50
2022-09-13T07:52:08.012Z,17.60
2022-09-13T07:57:09.702Z,17.70
2022-09-13T08:02:11.563Z,17.90
2022-09-13T08:07:14.352Z,17.90
2022-09-13T08:12:16.054Z,18.10
2022-09-13T08:17:17.769Z,18.20
2022-09-13T08:22:20.068Z,18.20
2022-09-13T08:27:21.850Z,18.40
2022-09-13T08:32:23.605Z,18.50
2022-09-13T08:37:25.481Z,18.70
2022-09-13T08:42:39.784Z,18.90
2022-09-13T08:47:49.934Z,19.10
2022-09-13T08:53:24.717Z,19.30
2022-09-13T08:58:49.690Z,19.50
2022-09-13T09:03:57.409Z,19.70
2022-09-13T09:09:12.636Z,19.80
2022-09-13T09:14:34.220Z,19.90
2022-09-13T09:20:11.175Z,20.00
2022-09-13T09:25:12.993Z,20.20
2022-09-13T09:30:15.076Z,20.40
2022-09-13T09:35:43.647Z,20.60
2022-09-13T09:40:45.685Z,20.80
2022-09-13T09:45:49.211Z,21.00
2022-09-13T09:50:54.561Z,21.10
2022-09-13T09:56:15.406Z,21.30
2022-09-13T10:01:25.729Z,21.40
2022-09-13T10:06:30.939Z,21.40
2022-09-13T10:11:53.904Z,21.50
2022-09-13T10:17:12.352Z,21.70
2022-09-13T10:22:14.685Z,21.80
2022-09-13T10:27:39.510Z,22.00
2022-09-13T10:32:41.830Z,22.10
2022-09-13T10:37:45.145Z,22.20
2022-09-13T10:42:58.544Z,22.30
2022-09-13T10:48:10.165Z,22.30
2022-09-13T10:53:31.805Z,22.40
2022-09-13T10:58:33.582Z,22.50
2022-09-13T11:03:52.790Z,22.50
2022-09-13T11:09:29.146Z,22.70
2022-09-13T11:14:51.525Z,22.80
2022-09-13T11:20:08.103Z,22.80
2022-09-13T11:25:29.720Z,22.90
2022-09-13T11:31:01.532Z,22.90
2022-09-13T11:36:18.374Z,23.00
2022-09-13T11:41:35.252Z,23.10
2022-09-13T11:47:16.742Z,23.10
2022-09-13T11:52:46.398Z,23.20
2022-09-13T11:58:02.010Z,23.30
2022-09-13T12:03:37.127Z,23.40
2022-09-13T12:08:45.317Z,23.50
2022-09-13T12:14:01.034Z,23.60
2022-09-13T12:19:15.713Z,23.60
2022-09-13T12:24:49.182Z,23.60
2022-09-13T12:29:57.494Z,23.70
2022-09-13T12:35:07.940Z,23.80
2022-09-13T12:40:34.573Z,23.80
2022-09-13T12:46:07.746Z,23.90
2022-09-13T12:51:21.719Z,23.90
2022-09-13T12:56:45.279Z,23.90
2022-09-13T13:01:50.160Z,23.90
2022-09-13T13:06:52.153Z,24.10
2022-09-13T13:11:54.727Z,24.00
2022-09-13T13:17:34.593Z,24.10
2022-09-13T13:22:42.589Z,24.20
2022-09-13T13:27:48.615Z,24.30
2022-09-13T13:33:21.606Z,24.30
2022-09-13T13:38:23.192Z,24.40
2022-09-13T13:43:34.044Z,24.50
2022-09-13T13:48:40.026Z,24.60
2022-09-13T13:53:54.372Z,24.60
2022-09-13T13:59:05.530Z,24.70
2022-09-13T14:04:39.307Z,24.70
2022-09-13T14:09:59.441Z,24.90
2022-09-13T14:15:29.770Z,25.00
2022-09-13T14:20:31.430Z,25.00
2022-09-13T14:25:33.180Z,25.00
2022-09-13T14:30:37.581Z,25.00
2022-09-13T14:35:41.151Z,24.90
2022-09-13T14:40:48.558Z,24.90
2022-09-13T14:45:57.198Z,24.80
2022-09-13T14:51:03.067Z,24.80
2022-09-13T14:56:15.780Z,24.70
2022-09-13T15:01:21.865Z,24.60
2022-09-13T15:06:30.087Z,24.50
2022-09-13T15:11:35.262Z,24.30
2022-09-13T15:16:51.706Z,24.30
2022-09-13T15:22:03.088Z,24.20
2022-09-13T15:27:16.499Z,24.20
2022-09-13T15:32:32.808Z,24.00
2022-09-13T15:37:37.565Z,23.90
2022-09-13T15:42:39.233Z,23.80
2022-09-13T15:47:40.971Z,23.70
2022-09-13T15:52:42.559Z,23.60
2022-09-13T15:57:45.847Z,23.60
2022-09-13T16:02:47.753Z,23.50
2022-09-13T16:07:49.479Z,23.30
2022-09-13T16:12:51.571Z,23.20
2022-09-13T16:17:53.200Z,23.00
2022-09-13T16:22:55.022Z,22.80
2022-09-13T16:27:56.833Z,22.70
2022-09-13T16:32:58.573Z,22.60
2022-09-13T16:38:00.463Z,22.50
2022-09-13T16:43:02.936Z,22.30
2022-09-13T16:48:04.782Z,22.20
2022-09-13T16:53:06.653Z,22.00
2022-09-13T16:58:08.445Z,21.80
2022-09-13T17:03:10.389Z,21.70
2022-09-13T17:08:12.110Z,21.50
2022-09-13T17:13:14.064Z,21.30
2022-09-13T17:18:16.276Z,21.30
2022-09-13T17:23:17.966Z,21.20
2022-09-13T17:28:19.786Z,21.10
2022-09-13T17:33:21.767Z,21.00
2022-09-13T17:38:23.808Z,21.00
2022-09-13T17:43:25.471Z,20.90
2022-09-13T17:48:27.153Z,20.90
2022-09-13T17:53:28.878Z,20.80
2022-09-13T17:58:30.892Z,20.70
2022-09-13T18:03:33.306Z,20.70
2022-09-13T18:08:37.604Z,20.60
2022-09-13T18:13:40.959Z,20.50
2022-09-13T18:18:45.997Z,20.50
2022-09-13T18:23:49.364Z,20.40
2022-09-13T18:28:56.524Z,20.40
2022-09-13T18:34:04.804Z,20.30
2022-09-13T18:39:08.021Z,20.30
2022-09-13T18:44:11.097Z,20.30
2022-09-13T18:49:13.500Z,20.30
2022-09-13T18:54:17.697Z,20.20
2022-09-13T18:59:19.452Z,20.20
2022-09-13T19:04:21.381Z,20.10
2022-09-13T19:09:24.009Z,20.10
2022-09-13T19:14:28.444Z,20.10
2022-09-13T19:19:33.754Z,20.00
2022-09-13T19:24:37.290Z,20.10
2022-09-13T19:29:38.936Z,20.10
2022-09-13T19:34:43.700Z,20.00
2022-09-13T19:39:46.717Z,20.00
2022-09-13T19:44:48.502Z,20.10
2022-09-13T19:49:50.297Z,20.00
2022-09-13T19:54:52.509Z,20.10
2022-09-13T19:59:55.077Z,19.90
2022-09-13T20:04:56.797Z,19.90
2022-09-13T20:09:58.485Z,19.90
2022-09-13T20:15:00.176Z,19.80
2022-09-13T20:20:01.991Z,19.80
2022-09-13T20:25:04.600Z,19.80
2022-09-13T20:30:07.132Z,19.80
2022-09-13T20:35:10.059Z,19.70
2022-09-13T20:40:11.954Z,19.70
2022-09-13T20:45:15.901Z,19.70
2022-09-13T20:50:20.291Z,19.70
2022-09-13T20:55:21.933Z,19.60
2022-09-13T21:00:24.090Z,19.70
2022-09-13T21:05:25.841Z,19.70
2022-09-13T21:10:27.493Z,19.70
2022-09-13T21:15:29.159Z,19.70
2022-09-13T21:20:30.802Z,19.60
2022-09-13T21:25:36.324Z,19.60
2022-09-13T21:30:38.153Z,19.60
2022-09-13T21:35:39.938Z,19.60
2022-09-13T21:40:41.666Z,19.60
2022-09-13T21:45:44.087Z,19.60
2022-09-13T21:50:45.764Z,19.50
2022-09-13T21:55:47.829Z,19.60
2022-09-13T22:00:50.260Z,19.60
2022-09-13T22:05:56.478Z,19.60
2022-09-13T22:11:06.748Z,19.60
2022-09-13T22:16:09.818Z,19.50
2022-09-13T22:21:14.347Z,19.50
2022-09-13T22:26:17.711Z,19.60
2022-09-13T22:31:22.387Z,19.50
2022-09-13T22:36:24.248Z,19.40
2022-09-13T22:41:28.608Z,19.50
2022-09-13T22:46:34.940Z,19.40
2022-09-13T22:51:36.577Z,19.40
2022-09-13T22:56:38.440Z,19.30
2022-09-13T23:01:40.522Z,19.30
2022-09-13T23:06:44.021Z,19.30
2022-09-13T23:11:46.465Z,19.30
2022-09-13T23:16:50.444Z,19.30
2022-09-13T23:21:52.947Z,19.30
2022-09-13T23:26:55.861Z,19.30
2022-09-13T23:31:57.691Z,19.30
2022-09-13T23:36:59.480Z,19.30
2022-09-13T23:42:01.284Z,19.30
2022-09-13T23:47:03.085Z,19.30
2022-09-13T23:52:04.828Z,19.30
2022-09-13T23:57:06.555Z,19.30
